Terminal Aerodrome Forecast
Issued by NWS Wilmington, OH

Home | Current Version | Previous Version | Text Only | Print | Product List | Glossary On
Versions: 1 2 3 4 5 6 7 8 9 10 11 12 13 14 15 16 17 18 19 20 21 22 23 24
000
FTUS41 KILN 232334
TAFCVG
TAF
KCVG 232334Z 2400/2506 20008KT P6SM SCT060 OVC250
     FM240700 18010KT P6SM SCT045 SCT250
     FM241100 19012G20KT P6SM SCT040 SCT250
     FM241500 19014G24KT P6SM BKN050
     FM242300 20012G19KT P6SM -SHRA VCTS SCT030CB OVC070
     FM250400 24016G25KT P6SM OVC025=

USA.gov is the U.S. government's official web portal to all federal, state and local government web resources and services.